Startpagina
METAR-TAF:

METAR-TAF

Vliegvelden :

Aeropuerto Internacional Astor Piazolla

Mar del Plata, Argentinië

breedte: 37-56S, lengte: 057-35W, hoogte: 18 m

Actueel weer

Dit bericht is 23 minuten geleden gemaakt, om 22:00 UTC
Wind 2 kt uit het zuidwesten
Temperatuur 9°C
Vochtigheid 76%
Druk 1022 hPa
Zicht 10 km of meer
geen wolken onder 1500 m en geen cumulonimbus

METAR: SAZM 222200Z 23002KT CAVOK 09/05 Q1022

Tijdstip: 19:23 (22:23 UTC)

Verwachting

Dit bericht is 5 uur en het 23 minuten geleden gemaakt, om 17:00 UTC
Verwachting geldig van 22 om 18 UTC tot 23 om 18 UTC
Wind 10 kt uit het zuidzuidwesten
Zicht 10 km of meer
geen wolken onder 1500 m en geen cumulonimbus
Tijdelijke
van 23 om 06 UTC tot 23 om 13 UTC
Zicht: 3000 m
nevel
Wijzigt naar
van 23 om 14 UTC tot 23 om 16 UTC
Wind 5 kt uit het westen
Zicht 10 km of meer
geen wolken onder 1500 m en geen cumulonimbus

TAF: SAZM 221700Z 2218/2318 20010KT CAVOK TX12/2318Z TN04/2310Z TEMPO 2306/2313 VBR03KT 3000 BR NSC BECMG 2314/2316 27005KT CAVOK

Waarnemingen en weersverwachtingen van meer dan 4000 vliegvelden (METAR en TAF).

De beschikbare stations zijn de gele en rode punten op de kaart.

Ga met uw muis naar het station om de naam te zien.

Klik dan om waarnemingen en weersverwachtingen te zien.

kaart wijzigen: klik op de groene knoppen met een zwart kruis om in te zoomen, op de groene knop met een streepje om uit te zoomen of op de groene pijlen voor aangrenzende kaarten.


METAR-TAF: